PRIVATE WETTERSTATION BILLIGHEIM-ALLFELD                       ZURCK
Wetterdaten: Freitag, 14.03.2014
Datum Zeit Temp. A. Temp. A. min Temp. A. max Feuchte A. Luftdruck Regen Wind Richtung Richtung Sonnenschein ET Solar Taupunkt Windchill Windben Empfang
14.03.2014 00:00 3,8 C 3,8 C 4,1 C 82 % 1026,5 hPa 0,0 l/m 0,0 km/h (0 Bft) S 180 0 min 0,000 mm 0 W/m 1,0 C 3,8 C 3,2 km/h (1 Bft) 98 %
14.03.2014 00:10 3,6 C 3,6 C 3,8 C 83 % 1026,4 hPa 0,0 l/m 0,0 km/h (0 Bft) S 180 0 min 0,000 mm 0 W/m 1,0 C 3,6 C 1,6 km/h (1 Bft) 97 %
14.03.2014 00:20 3,4 C 3,4 C 3,6 C 83 % 1026,4 hPa 0,0 l/m 0,0 km/h (0 Bft) S 180 0 min 0,000 mm 0 W/m 0,8 C 3,4 C 1,6 km/h (1 Bft) 97 %
14.03.2014 00:30 3,2 C 3,2 C 3,4 C 83 % 1026,3 hPa 0,0 l/m 0,0 km/h (0 Bft) S 180 0 min 0,000 mm 0 W/m 0,6 C 3,2 C 1,6 km/h (1 Bft) 97 %
14.03.2014 00:40 3,0 C 3,0 C 3,2 C 84 % 1026,2 hPa 0,0 l/m 0,0 km/h (0 Bft) S 180 0 min 0,000 mm 0 W/m 0,6 C 3,0 C 1,6 km/h (1 Bft) 96 %
14.03.2014 00:50 2,9 C 2,9 C 3,0 C 84 % 1026,3 hPa 0,0 l/m 0,0 km/h (0 Bft) N 0 0 min 0,000 mm 0 W/m 0,5 C 2,9 C 0,0 km/h (0 Bft) 97 %
14.03.2014 01:00 2,8 C 2,8 C 2,9 C 85 % 1026,3 hPa 0,0 l/m 0,0 km/h (0 Bft) N 0 0 min 0,000 mm 0 W/m 0,5 C 2,8 C 0,0 km/h (0 Bft) 98 %
14.03.2014 01:10 2,8 C 2,8 C 2,8 C 85 % 1026,3 hPa 0,0 l/m 0,0 km/h (0 Bft) N 0 0 min 0,000 mm 0 W/m 0,5 C 2,8 C 0,0 km/h (0 Bft) 97 %
14.03.2014 01:20 2,9 C 2,8 C 2,9 C 85 % 1026,3 hPa 0,0 l/m 0,0 km/h (0 Bft) S 180 0 min 0,000 mm 0 W/m 0,6 C 2,9 C 1,6 km/h (1 Bft) 98 %
14.03.2014 01:30 2,8 C 2,8 C 2,9 C 84 % 1026,4 hPa 0,0 l/m 0,0 km/h (0 Bft) N 0 0 min 0,000 mm 0 W/m 0,4 C 2,8 C 0,0 km/h (0 Bft) 98 %
14.03.2014 01:40 2,7 C 2,7 C 2,8 C 84 % 1026,4 hPa 0,0 l/m 0,0 km/h (0 Bft) N 0 0 min 0,000 mm 0 W/m 0,3 C 2,7 C 0,0 km/h (0 Bft) 98 %
14.03.2014 01:50 2,8 C 2,7 C 2,8 C 84 % 1026,3 hPa 0,0 l/m 0,0 km/h (0 Bft) S 180 0 min 0,000 mm 0 W/m 0,4 C 2,8 C 1,6 km/h (1 Bft) 98 %
14.03.2014 02:00 2,9 C 2,8 C 2,9 C 84 % 1026,3 hPa 0,0 l/m 0,0 km/h (0 Bft) S 180 0 min 0,000 mm 0 W/m 0,5 C 2,9 C 1,6 km/h (1 Bft) 97 %
14.03.2014 02:10 3,0 C 2,9 C 3,0 C 83 % 1026,4 hPa 0,0 l/m 0,0 km/h (0 Bft) S 180 0 min 0,000 mm 0 W/m 0,4 C 3,0 C 1,6 km/h (1 Bft) 100 %
14.03.2014 02:20 3,0 C 2,9 C 3,1 C 82 % 1026,2 hPa 0,0 l/m 0,0 km/h (0 Bft) S 180 0 min 0,000 mm 0 W/m 0,2 C 3,0 C 1,6 km/h (1 Bft) 99 %
14.03.2014 02:30 2,7 C 2,7 C 3,0 C 83 % 1026,3 hPa 0,0 l/m 0,0 km/h (0 Bft) N 0 0 min 0,000 mm 0 W/m 0,1 C 2,7 C 0,0 km/h (0 Bft) 89 %
14.03.2014 02:40 2,6 C 2,6 C 2,7 C 83 % 1026,4 hPa 0,0 l/m 0,0 km/h (0 Bft) N 0 0 min 0,000 mm 0 W/m 0,0 C 2,6 C 0,0 km/h (0 Bft) 100 %
14.03.2014 02:50 2,5 C 2,5 C 2,6 C 83 % 1026,4 hPa 0,0 l/m 0,0 km/h (0 Bft) S 180 0 min 0,000 mm 0 W/m -0,1 C 2,5 C 1,6 km/h (1 Bft) 99 %
14.03.2014 03:00 2,5 C 2,5 C 2,6 C 84 % 1026,4 hPa 0,0 l/m 0,0 km/h (0 Bft) N 0 0 min 0,000 mm 0 W/m 0,1 C 2,5 C 0,0 km/h (0 Bft) 100 %
14.03.2014 03:10 2,4 C 2,4 C 2,5 C 84 % 1026,4 hPa 0,0 l/m 0,0 km/h (0 Bft) N 0 0 min 0,000 mm 0 W/m -0,0 C 2,4 C 0,0 km/h (0 Bft) 100 %
14.03.2014 03:20 2,4 C 2,4 C 2,4 C 83 % 1026,4 hPa 0,0 l/m 0,0 km/h (0 Bft) N 0 0 min 0,000 mm 0 W/m -0,2 C 2,4 C 0,0 km/h (0 Bft) 100 %
14.03.2014 03:30 2,4 C 2,4 C 2,4 C 84 % 1026,3 hPa 0,0 l/m 0,0 km/h (0 Bft) N 0 0 min 0,000 mm 0 W/m -0,0 C 2,4 C 0,0 km/h (0 Bft) 99 %
14.03.2014 03:40 2,3 C 2,3 C 2,4 C 84 % 1026,3 hPa 0,0 l/m 0,0 km/h (0 Bft) S 180 0 min 0,000 mm 0 W/m -0,1 C 2,3 C 1,6 km/h (1 Bft) 100 %
14.03.2014 03:50 2,3 C 2,3 C 2,3 C 84 % 1026,2 hPa 0,0 l/m 0,0 km/h (0 Bft) S 180 0 min 0,000 mm 0 W/m -0,1 C 2,3 C 1,6 km/h (1 Bft) 100 %
14.03.2014 04:00 2,1 C 2,1 C 2,3 C 84 % 1026,2 hPa 0,0 l/m 0,0 km/h (0 Bft) S 180 0 min 0,000 mm 0 W/m -0,3 C 2,1 C 3,2 km/h (1 Bft) 100 %
14.03.2014 04:10 1,9 C 1,9 C 2,2 C 84 % 1026,2 hPa 0,0 l/m 0,0 km/h (0 Bft) S 180 0 min 0,000 mm 0 W/m -0,5 C 1,9 C 1,6 km/h (1 Bft) 91 %
14.03.2014 04:20 1,5 C 1,5 C 1,9 C 84 % 1026,2 hPa 0,0 l/m 0,0 km/h (0 Bft) S 180 0 min 0,000 mm 0 W/m -0,9 C 1,5 C 1,6 km/h (1 Bft) 100 %
14.03.2014 04:30 1,4 C 1,4 C 1,5 C 85 % 1026,4 hPa 0,0 l/m 0,0 km/h (0 Bft) S 180 0 min 0,000 mm 0 W/m -0,8 C 1,4 C 1,6 km/h (1 Bft) 100 %
14.03.2014 04:40 1,4 C 1,4 C 1,4 C 86 % 1026,4 hPa 0,0 l/m 0,0 km/h (0 Bft) S 180 0 min 0,000 mm 0 W/m -0,7 C 1,4 C 1,6 km/h (1 Bft) 100 %
14.03.2014 04:50 1,4 C 1,4 C 1,4 C 86 % 1026,4 hPa 0,0 l/m 0,0 km/h (0 Bft) S-SW 202 0 min 0,000 mm 0 W/m -0,7 C 1,4 C 3,2 km/h (1 Bft) 100 %
14.03.2014 05:00 1,4 C 1,4 C 1,4 C 86 % 1026,5 hPa 0,0 l/m 0,0 km/h (0 Bft) S-SW 202 0 min 0,000 mm 0 W/m -0,7 C 1,4 C 3,2 km/h (1 Bft) 100 %
14.03.2014 05:10 1,6 C 1,4 C 1,6 C 86 % 1026,5 hPa 0,0 l/m 0,0 km/h (0 Bft) S-SW 202 0 min 0,000 mm 0 W/m -0,5 C 1,6 C 1,6 km/h (1 Bft) 100 %
14.03.2014 05:20 1,6 C 1,6 C 1,6 C 85 % 1026,4 hPa 0,0 l/m 0,0 km/h (0 Bft) N 0 0 min 0,000 mm 0 W/m -0,6 C 1,6 C 0,0 km/h (0 Bft) 100 %
14.03.2014 05:30 1,4 C 1,4 C 1,6 C 85 % 1026,4 hPa 0,0 l/m 0,0 km/h (0 Bft) N 0 0 min 0,000 mm 0 W/m -0,8 C 1,4 C 0,0 km/h (0 Bft) 100 %
14.03.2014 05:40 1,2 C 1,2 C 1,4 C 85 % 1026,4 hPa 0,0 l/m 0,0 km/h (0 Bft) N 0 0 min 0,000 mm 0 W/m -1,0 C 1,2 C 0,0 km/h (0 Bft) 90 %
14.03.2014 05:50 0,9 C 0,9 C 1,2 C 86 % 1026,5 hPa 0,0 l/m 0,0 km/h (0 Bft) S-SW 202 0 min 0,000 mm 0 W/m -1,2 C 0,9 C 1,6 km/h (1 Bft) 100 %
14.03.2014 06:00 0,7 C 0,7 C 0,9 C 86 % 1026,4 hPa 0,0 l/m 0,0 km/h (0 Bft) S-SW 202 0 min 0,000 mm 0 W/m -1,4 C 0,7 C 1,6 km/h (1 Bft) 100 %
14.03.2014 06:10 0,6 C 0,6 C 0,8 C 86 % 1026,4 hPa 0,0 l/m 0,0 km/h (0 Bft) N 0 0 min 0,000 mm 0 W/m -1,5 C 0,6 C 0,0 km/h (0 Bft) 100 %
14.03.2014 06:20 0,5 C 0,5 C 0,6 C 87 % 1026,4 hPa 0,0 l/m 0,0 km/h (0 Bft) N 0 0 min 0,000 mm 0 W/m -1,4 C 0,5 C 0,0 km/h (0 Bft) 100 %
14.03.2014 06:30 0,4 C 0,4 C 0,5 C 87 % 1026,3 hPa 0,0 l/m 0,0 km/h (0 Bft) S-SW 202 0 min 0,000 mm 0 W/m -1,5 C 0,4 C 1,6 km/h (1 Bft) 100 %
14.03.2014 06:40 0,3 C 0,3 C 0,4 C 87 % 1026,3 hPa 0,0 l/m 0,0 km/h (0 Bft) S-SW 202 0 min 0,000 mm 0 W/m -1,6 C 0,3 C 1,6 km/h (1 Bft) 100 %
14.03.2014 06:50 0,3 C 0,3 C 0,4 C 87 % 1026,3 hPa 0,0 l/m 0,0 km/h (0 Bft) S-SW 202 0 min 0,000 mm 9 W/m -1,6 C 0,3 C 1,6 km/h (1 Bft) 100 %
14.03.2014 07:00 0,3 C 0,2 C 0,3 C 87 % 1026,2 hPa 0,0 l/m 0,0 km/h (0 Bft) S-SW 202 0 min 0,000 mm 16 W/m -1,6 C 0,3 C 1,6 km/h (1 Bft) 100 %
14.03.2014 07:10 0,4 C 0,3 C 0,4 C 87 % 1026,3 hPa 0,0 l/m 0,0 km/h (0 Bft) S-SW 202 0 min 0,000 mm 21 W/m -1,5 C 0,4 C 1,6 km/h (1 Bft) 100 %
14.03.2014 07:20 0,3 C 0,3 C 0,5 C 87 % 1026,5 hPa 0,0 l/m 0,0 km/h (0 Bft) S-SW 202 0 min 0,000 mm 28 W/m -1,6 C 0,3 C 1,6 km/h (1 Bft) 99 %
14.03.2014 07:30 0,1 C 0,1 C 0,3 C 87 % 1026,5 hPa 0,0 l/m 0,0 km/h (0 Bft) S-SW 202 0 min 0,000 mm 37 W/m -1,8 C 0,1 C 1,6 km/h (1 Bft) 100 %
14.03.2014 07:40 0,1 C 0,1 C 0,1 C 87 % 1026,6 hPa 0,0 l/m 0,0 km/h (0 Bft) S-SW 202 0 min 0,000 mm 44 W/m -1,8 C 0,1 C 1,6 km/h (1 Bft) 100 %
14.03.2014 07:50 0,1 C 0,1 C 0,1 C 87 % 1026,6 hPa 0,0 l/m 0,0 km/h (0 Bft) N 0 0 min 0,000 mm 49 W/m -1,8 C 0,1 C 0,0 km/h (0 Bft) 100 %
14.03.2014 08:00 0,3 C 0,1 C 0,3 C 87 % 1026,7 hPa 0,0 l/m 0,0 km/h (0 Bft) N 0 0 min 0,025 mm 134 W/m -1,6 C 0,3 C 0,0 km/h (0 Bft) 100 %
14.03.2014 08:10 0,9 C 0,3 C 0,9 C 87 % 1026,6 hPa 0,0 l/m 0,0 km/h (0 Bft) N 0 10 min 0,000 mm 160 W/m -1,0 C 0,9 C 0,0 km/h (0 Bft) 100 %
14.03.2014 08:20 1,6 C 0,9 C 1,6 C 87 % 1026,7 hPa 0,0 l/m 0,0 km/h (0 Bft) N 0 10 min 0,000 mm 188 W/m -0,3 C 1,6 C 0,0 km/h (0 Bft) 100 %
14.03.2014 08:30 2,4 C 1,6 C 2,4 C 87 % 1026,6 hPa 0,0 l/m 0,0 km/h (0 Bft) SW 225 10 min 0,000 mm 213 W/m 0,5 C 2,4 C 1,6 km/h (1 Bft) 100 %
14.03.2014 08:40 3,2 C 2,4 C 3,2 C 86 % 1026,8 hPa 0,0 l/m 0,0 km/h (0 Bft) SW 225 10 min 0,000 mm 239 W/m 1,1 C 3,2 C 1,6 km/h (1 Bft) 100 %
14.03.2014 08:50 4,4 C 3,2 C 4,4 C 85 % 1026,7 hPa 0,0 l/m 0,0 km/h (0 Bft) N 0 10 min 0,000 mm 264 W/m 2,1 C 4,4 C 0,0 km/h (0 Bft) 100 %
14.03.2014 09:00 5,7 C 4,4 C 5,7 C 82 % 1026,7 hPa 0,0 l/m 0,0 km/h (0 Bft) N 0 10 min 0,076 mm 294 W/m 2,9 C 5,7 C 0,0 km/h (0 Bft) 100 %
14.03.2014 09:10 6,8 C 5,7 C 6,8 C 80 % 1026,7 hPa 0,0 l/m 0,0 km/h (0 Bft) SW 225 10 min 0,000 mm 320 W/m 3,6 C 6,8 C 1,6 km/h (1 Bft) 100 %
14.03.2014 09:20 7,6 C 6,8 C 7,6 C 75 % 1026,6 hPa 0,0 l/m 0,0 km/h (0 Bft) SW 225 10 min 0,000 mm 345 W/m 3,5 C 7,6 C 1,6 km/h (1 Bft) 100 %
14.03.2014 09:30 8,4 C 7,6 C 8,4 C 73 % 1026,4 hPa 0,0 l/m 0,0 km/h (0 Bft) SW 225 10 min 0,000 mm 369 W/m 3,8 C 8,4 C 1,6 km/h (1 Bft) 100 %
14.03.2014 09:40 9,2 C 8,5 C 9,2 C 70 % 1026,3 hPa 0,0 l/m 0,0 km/h (0 Bft) SW 225 10 min 0,000 mm 394 W/m 4,0 C 9,2 C 1,6 km/h (1 Bft) 100 %
14.03.2014 09:50 9,9 C 9,3 C 9,9 C 67 % 1026,2 hPa 0,0 l/m 0,0 km/h (0 Bft) S-SW 202 10 min 0,000 mm 417 W/m 4,1 C 9,9 C 3,2 km/h (1 Bft) 99 %
14.03.2014 10:00 10,1 C 9,9 C 10,1 C 66 % 1026,2 hPa 0,0 l/m 0,0 km/h (0 Bft) S-SW 202 10 min 0,152 mm 436 W/m 4,0 C 10,1 C 6,4 km/h (2 Bft) 100 %
14.03.2014 10:10 10,2 C 10,1 C 10,2 C 66 % 1026,2 hPa 0,0 l/m 0,0 km/h (0 Bft) S-SW 202 10 min 0,000 mm 452 W/m 4,1 C 10,2 C 4,8 km/h (1 Bft) 100 %
14.03.2014 10:20 10,7 C 10,2 C 10,7 C 66 % 1026,1 hPa 0,0 l/m 0,0 km/h (0 Bft) S-SW 202 10 min 0,000 mm 473 W/m 4,6 C 10,7 C 4,8 km/h (1 Bft) 100 %
14.03.2014 10:30 11,4 C 10,7 C 11,4 C 61 % 1026,0 hPa 0,0 l/m 0,0 km/h (0 Bft) S-SW 202 10 min 0,000 mm 489 W/m 4,2 C 11,4 C 6,4 km/h (2 Bft) 100 %
14.03.2014 10:40 11,6 C 11,3 C 11,6 C 63 % 1025,9 hPa 0,0 l/m 0,0 km/h (0 Bft) W-SW 247 10 min 0,000 mm 506 W/m 4,8 C 11,6 C 4,8 km/h (1 Bft) 100 %
14.03.2014 10:50 11,9 C 11,6 C 11,9 C 59 % 1025,9 hPa 0,0 l/m 0,0 km/h (0 Bft) W-SW 247 10 min 0,000 mm 522 W/m 4,1 C 11,9 C 6,4 km/h (2 Bft) 100 %
14.03.2014 11:00 12,4 C 11,9 C 12,4 C 57 % 1025,8 hPa 0,0 l/m 1,6 km/h (1 Bft) W-SW 247 10 min 0,229 mm 536 W/m 4,1 C 12,4 C 4,8 km/h (1 Bft) 100 %
14.03.2014 11:10 12,6 C 12,3 C 12,6 C 58 % 1025,8 hPa 0,0 l/m 1,6 km/h (1 Bft) S-SW 202 10 min 0,000 mm 548 W/m 4,6 C 12,6 C 8,0 km/h (2 Bft) 100 %
14.03.2014 11:20 13,1 C 12,6 C 13,1 C 57 % 1025,8 hPa 0,0 l/m 0,0 km/h (0 Bft) S-SW 202 10 min 0,000 mm 559 W/m 4,8 C 13,1 C 6,4 km/h (2 Bft) 99 %
14.03.2014 11:30 13,4 C 13,1 C 13,4 C 56 % 1025,7 hPa 0,0 l/m 0,0 km/h (0 Bft) S-SW 202 10 min 0,000 mm 568 W/m 4,8 C 13,4 C 6,4 km/h (2 Bft) 100 %
14.03.2014 11:40 13,8 C 13,4 C 13,8 C 56 % 1025,7 hPa 0,0 l/m 0,0 km/h (0 Bft) SW 225 10 min 0,000 mm 575 W/m 5,2 C 13,8 C 6,4 km/h (2 Bft) 100 %
14.03.2014 11:50 14,1 C 13,8 C 14,1 C 55 % 1025,7 hPa 0,0 l/m 1,6 km/h (1 Bft) S 180 10 min 0,000 mm 584 W/m 5,2 C 14,1 C 6,4 km/h (2 Bft) 100 %
14.03.2014 12:00 14,2 C 14,1 C 14,2 C 55 % 1025,6 hPa 0,0 l/m 1,6 km/h (1 Bft) S-SW 202 10 min 0,279 mm 589 W/m 5,3 C 14,2 C 8,0 km/h (2 Bft) 100 %
14.03.2014 12:10 14,8 C 14,2 C 14,8 C 50 % 1025,5 hPa 0,0 l/m 1,6 km/h (1 Bft) S-SW 202 10 min 0,000 mm 592 W/m 4,5 C 14,8 C 8,0 km/h (2 Bft) 100 %
14.03.2014 12:20 14,8 C 14,8 C 14,8 C 50 % 1025,3 hPa 0,0 l/m 1,6 km/h (1 Bft) SW 225 10 min 0,000 mm 598 W/m 4,5 C 14,8 C 8,0 km/h (2 Bft) 100 %
14.03.2014 12:30 15,1 C 14,8 C 15,1 C 51 % 1025,1 hPa 0,0 l/m 1,6 km/h (1 Bft) S-SW 202 10 min 0,000 mm 598 W/m 5,0 C 15,1 C 9,7 km/h (2 Bft) 100 %
14.03.2014 12:40 15,1 C 15,1 C 15,1 C 51 % 1025,1 hPa 0,0 l/m 1,6 km/h (1 Bft) S-SW 202 10 min 0,000 mm 596 W/m 5,0 C 15,1 C 8,0 km/h (2 Bft) 100 %
14.03.2014 12:50 15,5 C 15,1 C 15,5 C 50 % 1024,9 hPa 0,0 l/m 1,6 km/h (1 Bft) SW 225 10 min 0,000 mm 596 W/m 5,1 C 15,5 C 8,0 km/h (2 Bft) 100 %
14.03.2014 13:00 15,6 C 15,6 C 15,8 C 46 % 1024,8 hPa 0,0 l/m 3,2 km/h (1 Bft) S-SW 202 10 min 0,330 mm 594 W/m 4,0 C 15,6 C 9,7 km/h (2 Bft) 100 %
14.03.2014 13:10 15,9 C 15,6 C 15,9 C 46 % 1024,7 hPa 0,0 l/m 3,2 km/h (1 Bft) S-SW 202 10 min 0,000 mm 587 W/m 4,3 C 15,9 C 9,7 km/h (2 Bft) 100 %
14.03.2014 13:20 16,3 C 15,9 C 16,3 C 45 % 1024,5 hPa 0,0 l/m 3,2 km/h (1 Bft) S-SW 202 10 min 0,000 mm 580 W/m 4,3 C 16,3 C 14,5 km/h (3 Bft) 100 %
14.03.2014 13:30 16,5 C 16,3 C 16,5 C 45 % 1024,3 hPa 0,0 l/m 3,2 km/h (1 Bft) S-SW 202 10 min 0,000 mm 575 W/m 4,5 C 16,5 C 14,5 km/h (3 Bft) 100 %
14.03.2014 13:40 16,7 C 16,5 C 16,7 C 45 % 1024,2 hPa 0,0 l/m 3,2 km/h (1 Bft) S-SW 202 10 min 0,000 mm 568 W/m 4,7 C 16,7 C 11,3 km/h (2 Bft) 100 %
14.03.2014 13:50 16,8 C 16,7 C 16,8 C 44 % 1024,1 hPa 0,0 l/m 1,6 km/h (1 Bft) S-SO 157 10 min 0,000 mm 561 W/m 4,5 C 16,8 C 9,7 km/h (2 Bft) 100 %
14.03.2014 14:00 17,0 C 16,8 C 17,0 C 44 % 1023,9 hPa 0,0 l/m 1,6 km/h (1 Bft) SW 225 10 min 0,330 mm 550 W/m 4,7 C 17,0 C 9,7 km/h (2 Bft) 99 %
14.03.2014 14:10 17,4 C 17,0 C 17,4 C 43 % 1023,8 hPa 0,0 l/m 3,2 km/h (1 Bft) S-SW 202 10 min 0,000 mm 534 W/m 4,7 C 17,4 C 16,1 km/h (3 Bft) 100 %
14.03.2014 14:20 17,6 C 17,4 C 17,6 C 42 % 1023,7 hPa 0,0 l/m 1,6 km/h (1 Bft) SW 225 10 min 0,000 mm 515 W/m 4,5 C 17,6 C 11,3 km/h (2 Bft) 100 %
14.03.2014 14:30 17,8 C 17,5 C 17,8 C 40 % 1023,6 hPa 0,0 l/m 4,8 km/h (1 Bft) S 180 10 min 0,000 mm 499 W/m 4,0 C 17,8 C 9,7 km/h (2 Bft) 100 %
14.03.2014 14:40 17,9 C 17,7 C 17,9 C 39 % 1023,5 hPa 0,0 l/m 4,8 km/h (1 Bft) SW 225 10 min 0,000 mm 490 W/m 3,8 C 17,9 C 11,3 km/h (2 Bft) 100 %
14.03.2014 14:50 18,3 C 17,9 C 18,3 C 38 % 1023,4 hPa 0,0 l/m 0,0 km/h (0 Bft) W 270 10 min 0,000 mm 469 W/m 3,7 C 18,3 C 8,0 km/h (2 Bft) 100 %
14.03.2014 15:00 18,6 C 18,3 C 18,6 C 37 % 1023,2 hPa 0,0 l/m 1,6 km/h (1 Bft) SW 225 10 min 0,305 mm 452 W/m 3,6 C 18,6 C 9,7 km/h (2 Bft) 100 %
14.03.2014 15:10 18,5 C 18,5 C 18,6 C 38 % 1023,0 hPa 0,0 l/m 0,0 km/h (0 Bft) SW 225 10 min 0,000 mm 420 W/m 3,9 C 18,5 C 8,0 km/h (2 Bft) 100 %
14.03.2014 15:20 18,1 C 18,1 C 18,5 C 41 % 1023,0 hPa 0,0 l/m 3,2 km/h (1 Bft) S-SW 202 10 min 0,000 mm 408 W/m 4,6 C 18,1 C 14,5 km/h (3 Bft) 100 %
14.03.2014 15:30 17,9 C 17,8 C 18,1 C 40 % 1022,9 hPa 0,0 l/m 4,8 km/h (1 Bft) S-SW 202 10 min 0,000 mm 387 W/m 4,1 C 17,9 C 14,5 km/h (3 Bft) 100 %
14.03.2014 15:40 18,1 C 17,9 C 18,1 C 39 % 1022,8 hPa 0,0 l/m 1,6 km/h (1 Bft) W-SW 247 10 min 0,000 mm 360 W/m 3,9 C 18,1 C 8,0 km/h (2 Bft) 100 %
14.03.2014 15:50 18,2 C 18,1 C 18,2 C 39 % 1022,7 hPa 0,0 l/m 1,6 km/h (1 Bft) SW 225 10 min 0,000 mm 306 W/m 4,0 C 18,2 C 9,7 km/h (2 Bft) 100 %
14.03.2014 16:00 18,3 C 18,2 C 18,3 C 39 % 1022,5 hPa 0,0 l/m 1,6 km/h (1 Bft) SW 225 0 min 0,203 mm 102 W/m 4,1 C 18,3 C 8,0 km/h (2 Bft) 100 %
14.03.2014 16:10 18,0 C 18,0 C 18,3 C 40 % 1022,5 hPa 0,0 l/m 3,2 km/h (1 Bft) S-SW 202 0 min 0,000 mm 90 W/m 4,2 C 18,0 C 12,9 km/h (3 Bft) 100 %
14.03.2014 16:30 17,6 C 17,6 C 18,3 C 41 % 1022,3 hPa 0,0 l/m 0,7 km/h (0 Bft) S 179 0 min 0,001 mm 76 W/m 4,2 C 17,6 C 6,4 km/h (2 Bft) 100 %
14.03.2014 16:40 17,3 C 17,3 C 17,6 C 43 % 1022,1 hPa 0,0 l/m 1,9 km/h (1 Bft) SW 234 0 min 0,000 mm 69 W/m 4,6 C 17,3 C 9,7 km/h (2 Bft) 100 %
14.03.2014 16:50 17,2 C 17,2 C 17,3 C 41 % 1021,9 hPa 0,0 l/m 2,6 km/h (1 Bft) S-SW 212 0 min 0,000 mm 62 W/m 3,8 C 17,2 C 9,7 km/h (2 Bft) 100 %
14.03.2014 17:00 16,9 C 16,9 C 17,3 C 40 % 1022,0 hPa 0,0 l/m 1,5 km/h (1 Bft) W-SW 241 0 min 0,077 mm 56 W/m 3,2 C 16,9 C 6,4 km/h (2 Bft) 100 %
14.03.2014 17:10 16,7 C 16,7 C 17,3 C 42 % 1022,0 hPa 0,0 l/m 2,2 km/h (1 Bft) SW 232 0 min 0,000 mm 49 W/m 3,7 C 16,7 C 9,7 km/h (2 Bft) 100 %
14.03.2014 17:20 16,5 C 16,4 C 16,7 C 42 % 1021,9 hPa 0,0 l/m 2,3 km/h (1 Bft) SW 234 0 min 0,000 mm 42 W/m 3,5 C 16,5 C 9,7 km/h (2 Bft) 100 %
14.03.2014 17:30 16,3 C 16,3 C 16,5 C 43 % 1021,9 hPa 0,0 l/m 2,8 km/h (1 Bft) W-SW 252 0 min 0,000 mm 37 W/m 3,7 C 16,3 C 9,7 km/h (2 Bft) 100 %
14.03.2014 17:40 16,0 C 16,0 C 16,3 C 43 % 1021,9 hPa 0,0 l/m 3,3 km/h (1 Bft) W 266 0 min 0,000 mm 33 W/m 3,4 C 16,0 C 9,7 km/h (2 Bft) 99 %
14.03.2014 17:50 15,7 C 15,7 C 16,0 C 44 % 1021,8 hPa 0,0 l/m 2,0 km/h (1 Bft) W 259 0 min 0,000 mm 25 W/m 3,5 C 15,7 C 6,4 km/h (2 Bft) 100 %
14.03.2014 18:00 15,3 C 15,3 C 15,7 C 45 % 1021,8 hPa 0,0 l/m 0,5 km/h (0 Bft) W 259 0 min 0,000 mm 19 W/m 3,4 C 15,3 C 4,8 km/h (1 Bft) 100 %
14.03.2014 18:10 15,1 C 15,1 C 15,3 C 45 % 1021,8 hPa 0,0 l/m 0,4 km/h (0 Bft) W 259 0 min 0,050 mm 12 W/m 3,3 C 15,1 C 4,8 km/h (1 Bft) 100 %
14.03.2014 18:20 14,6 C 14,6 C 15,1 C 45 % 1021,8 hPa 0,0 l/m 0,5 km/h (0 Bft) W 260 0 min 0,000 mm 5 W/m 2,8 C 14,6 C 6,4 km/h (2 Bft) 100 %
14.03.2014 18:30 14,1 C 14,1 C 14,6 C 45 % 1021,9 hPa 0,0 l/m 0,1 km/h (0 Bft) W 260 0 min 0,000 mm 0 W/m 2,4 C 14,1 C 1,6 km/h (1 Bft) 100 %
14.03.2014 18:40 13,7 C 13,7 C 14,1 C 45 % 1021,9 hPa 0,0 l/m 0,0 km/h (0 Bft) W 260 0 min 0,000 mm 0 W/m 2,0 C 13,7 C 1,6 km/h (1 Bft) 100 %
14.03.2014 18:50 13,3 C 13,3 C 13,7 C 44 % 1021,9 hPa 0,0 l/m 0,1 km/h (0 Bft) W 260 0 min 0,000 mm 0 W/m 1,3 C 13,3 C 3,2 km/h (1 Bft) 100 %
14.03.2014 19:00 13,1 C 13,1 C 13,3 C 45 % 1021,7 hPa 0,0 l/m 0,1 km/h (0 Bft) W 260 0 min 0,026 mm 0 W/m 1,4 C 13,1 C 4,8 km/h (1 Bft) 100 %
14.03.2014 19:10 12,8 C 12,8 C 13,1 C 46 % 1021,7 hPa 0,0 l/m 0,0 km/h (0 Bft) W 260 0 min 0,000 mm 0 W/m 1,5 C 12,8 C 1,6 km/h (1 Bft) 100 %
14.03.2014 19:20 12,5 C 12,5 C 12,8 C 47 % 1021,7 hPa 0,0 l/m 0,2 km/h (0 Bft) W 259 0 min 0,000 mm 0 W/m 1,5 C 12,5 C 6,4 km/h (2 Bft) 100 %
14.03.2014 19:30 12,4 C 12,4 C 12,5 C 48 % 1021,8 hPa 0,0 l/m 0,0 km/h (0 Bft) W 259 0 min 0,000 mm 0 W/m 1,7 C 12,4 C 1,6 km/h (1 Bft) 100 %
14.03.2014 19:40 12,1 C 12,1 C 12,4 C 48 % 1021,8 hPa 0,0 l/m 0,0 km/h (0 Bft) W 259 0 min 0,000 mm 0 W/m 1,4 C 12,1 C 1,6 km/h (1 Bft) 100 %
14.03.2014 19:50 11,8 C 11,8 C 12,1 C 48 % 1021,7 hPa 0,0 l/m 0,1 km/h (0 Bft) W 259 0 min 0,000 mm 0 W/m 1,2 C 11,8 C 3,2 km/h (1 Bft) 100 %
14.03.2014 20:00 11,9 C 11,7 C 11,9 C 48 % 1021,7 hPa 0,0 l/m 0,1 km/h (0 Bft) W 259 0 min 0,051 mm 0 W/m 1,2 C 11,9 C 1,6 km/h (1 Bft) 100 %
14.03.2014 20:10 11,7 C 11,7 C 11,9 C 50 % 1021,7 hPa 0,0 l/m 0,1 km/h (0 Bft) W 259 0 min 0,000 mm 0 W/m 1,6 C 11,7 C 3,2 km/h (1 Bft) 99 %
14.03.2014 20:20 11,3 C 11,3 C 11,7 C 51 % 1021,8 hPa 0,0 l/m 0,0 km/h (0 Bft) W 259 0 min 0,000 mm 0 W/m 1,5 C 11,3 C 1,6 km/h (1 Bft) 100 %
14.03.2014 20:30 10,9 C 10,9 C 11,3 C 51 % 1021,7 hPa 0,0 l/m 0,0 km/h (0 Bft) W 259 0 min 0,000 mm 0 W/m 1,2 C 10,9 C 0,0 km/h (0 Bft) 100 %
14.03.2014 20:40 10,7 C 10,7 C 10,9 C 52 % 1021,8 hPa 0,0 l/m 0,0 km/h (0 Bft) W 259 0 min 0,000 mm 0 W/m 1,3 C 10,7 C 0,0 km/h (0 Bft) 100 %
14.03.2014 20:50 10,6 C 10,6 C 10,7 C 52 % 1021,8 hPa 0,0 l/m 0,0 km/h (0 Bft) W 259 0 min 0,000 mm 0 W/m 1,2 C 10,6 C 1,6 km/h (1 Bft) 99 %
14.03.2014 21:00 10,2 C 10,2 C 10,6 C 54 % 1021,9 hPa 0,0 l/m 0,0 km/h (0 Bft) W 259 0 min 0,025 mm 0 W/m 1,3 C 10,2 C 0,0 km/h (0 Bft) 99 %
14.03.2014 21:10 9,9 C 9,9 C 10,2 C 54 % 1021,9 hPa 0,0 l/m 0,0 km/h (0 Bft) N 0 0 min 0,025 mm 0 W/m 1,0 C 9,9 C 0,0 km/h (0 Bft) 100 %
14.03.2014 21:20 9,6 C 9,6 C 9,9 C 55 % 1022,1 hPa 0,0 l/m 0,0 km/h (0 Bft) W 270 0 min 0,000 mm 0 W/m 1,0 C 9,6 C 1,6 km/h (1 Bft) 100 %
14.03.2014 21:30 9,3 C 9,3 C 9,6 C 58 % 1022,2 hPa 0,0 l/m 0,0 km/h (0 Bft) N 0 0 min 0,000 mm 0 W/m 1,5 C 9,3 C 0,0 km/h (0 Bft) 100 %
14.03.2014 21:40 8,8 C 8,8 C 9,2 C 60 % 1022,4 hPa 0,0 l/m 0,0 km/h (0 Bft) N 0 0 min 0,000 mm 0 W/m 1,5 C 8,8 C 0,0 km/h (0 Bft) 100 %
14.03.2014 21:50 8,2 C 8,2 C 8,8 C 61 % 1022,3 hPa 0,0 l/m 0,0 km/h (0 Bft) N 0 0 min 0,000 mm 0 W/m 1,1 C 8,2 C 0,0 km/h (0 Bft) 100 %
14.03.2014 22:00 7,8 C 7,8 C 8,2 C 62 % 1022,3 hPa 0,0 l/m 0,0 km/h (0 Bft) N 0 0 min 0,025 mm 0 W/m 1,0 C 7,8 C 0,0 km/h (0 Bft) 100 %
14.03.2014 22:10 7,6 C 7,6 C 7,8 C 63 % 1022,1 hPa 0,0 l/m 0,0 km/h (0 Bft) N 0 0 min 0,000 mm 0 W/m 1,0 C 7,6 C 0,0 km/h (0 Bft) 100 %
14.03.2014 22:20 7,4 C 7,4 C 7,6 C 65 % 1022,1 hPa 0,0 l/m 0,0 km/h (0 Bft) W 270 0 min 0,000 mm 0 W/m 1,3 C 7,4 C 1,6 km/h (1 Bft) 100 %
14.03.2014 22:30 7,1 C 7,1 C 7,4 C 67 % 1021,9 hPa 0,0 l/m 0,0 km/h (0 Bft) W 270 0 min 0,000 mm 0 W/m 1,4 C 7,1 C 1,6 km/h (1 Bft) 100 %
14.03.2014 22:40 7,1 C 7,1 C 7,1 C 67 % 1021,6 hPa 0,0 l/m 0,0 km/h (0 Bft) W 270 0 min 0,000 mm 0 W/m 1,4 C 7,1 C 4,8 km/h (1 Bft) 100 %
14.03.2014 22:50 7,4 C 7,0 C 7,4 C 67 % 1021,7 hPa 0,0 l/m 1,6 km/h (1 Bft) SO 135 0 min 0,000 mm 0 W/m 1,7 C 7,4 C 6,4 km/h (2 Bft) 99 %
14.03.2014 23:00 7,7 C 7,4 C 7,7 C 64 % 1021,5 hPa 0,0 l/m 3,2 km/h (1 Bft) SO 135 0 min 0,025 mm 0 W/m 1,3 C 7,7 C 9,7 km/h (2 Bft) 100 %
14.03.2014 23:10 8,3 C 7,7 C 8,3 C 63 % 1021,2 hPa 0,0 l/m 6,4 km/h (2 Bft) SO 135 0 min 0,000 mm 0 W/m 1,7 C 8,3 C 9,7 km/h (2 Bft) 100 %
14.03.2014 23:20 8,2 C 8,2 C 8,3 C 64 % 1021,1 hPa 0,0 l/m 4,8 km/h (1 Bft) SO 135 0 min 0,000 mm 0 W/m 1,8 C 8,2 C 9,7 km/h (2 Bft) 100 %
14.03.2014 23:30 7,9 C 7,9 C 8,2 C 64 % 1020,8 hPa 0,0 l/m 6,4 km/h (2 Bft) SO 135 0 min 0,000 mm 0 W/m 1,5 C 7,9 C 11,3 km/h (2 Bft) 100 %
14.03.2014 23:40 8,0 C 7,9 C 8,1 C 64 % 1020,8 hPa 0,0 l/m 6,4 km/h (2 Bft) SO 135 0 min 0,000 mm 0 W/m 1,6 C 8,0 C 14,5 km/h (3 Bft) 100 %
14.03.2014 23:50 7,9 C 7,9 C 8,1 C 65 % 1020,9 hPa 0,0 l/m 4,8 km/h (1 Bft) SO 135 0 min 0,000 mm 0 W/m 1,7 C 7,9 C 9,7 km/h (2 Bft) 100 %
_ Min-Zeit 07:30 07:30 07:40 15:00 23:30 - 00:00 - - - - - 07:30 07:30 00:50 02:30
Minimum _ 0,1 C 0,1 C 0,1 C 37 % 1020,8 hPa - 0,0 km/h (0 Bft) - - - - - -1,8 C 0,1 C 0,0 km/h (0 Bft) 89 %
_ Max-Zeit 15:00 15:10 15:00 06:20 08:40 00:00 23:10 - - 08:10 13:00 12:20 12:00 15:00 14:10 03:00
Maximum _ 18,6 C 18,5 C 18,6 C 87 % 1026,8 hPa 0,0 l/m 6,4 km/h
SO (2 Bft)
- - 10 min 0,330 mm 598 W/m 5,3 C 18,6 C 16,1 km/h
S-SW (3 Bft)
100 %
Durchschnitt _ 8,8 C 8,7 C 8,9 C 65 % 1024,5 hPa #0,0 l/m 0,8 km/h (0 Bft) S-SW - #7:50 h #2,234 mm 332 W/m 1,8 C 8,8 C 4,3 km/h (1 Bft) 99 %
PRIVATE WETTERSTATION BILLIGHEIM-ALLFELD - www.neckar-odenwald-wetter.de - Holger Sonntag